sensor_id;sensor_type;location;lat;lon;timestamp;P1;durP1;ratioP1;P2;durP2;ratioP2
2001;SDS011;1003;48.002;7.788;2024-02-28T00:00:25;28.27;;;15.77;;
2001;SDS011;1003;48.002;7.788;2024-02-28T00:02:52;29.57;;;16.33;;
2001;SDS011;1003;48.002;7.788;2024-02-28T00:05:18;26.07;;;15.30;;
2001;SDS011;1003;48.002;7.788;2024-02-28T00:07:45;27.53;;;15.90;;
2001;SDS011;1003;48.002;7.788;2024-02-28T00:12:47;27.03;;;15.53;;
2001;SDS011;1003;48.002;7.788;2024-02-28T00:15:16;28.73;;;15.47;;
2001;SDS011;1003;48.002;7.788;2024-02-28T00:17:43;26.10;;;15.03;;
2001;SDS011;1003;48.002;7.788;2024-02-28T00:20:12;25.90;;;14.40;;
2001;SDS011;1003;48.002;7.788;2024-02-28T00:22:39;29.50;;;16.17;;
2001;SDS011;1003;48.002;7.788;2024-02-28T00:25:08;28.53;;;15.40;;
2001;SDS011;1003;48.002;7.788;2024-02-28T00:27:36;26.90;;;14.93;;
2001;SDS011;1003;48.002;7.788;2024-02-28T00:30:04;29.23;;;15.67;;
2001;SDS011;1003;48.002;7.788;2024-02-28T00:32:33;31.90;;;17.03;;
2001;SDS011;1003;48.002;7.788;2024-02-28T00:35:01;28.77;;;16.03;;
2001;SDS011;1003;48.002;7.788;2024-02-28T00:37:29;27.90;;;16.23;;
2001;SDS011;1003;48.002;7.788;2024-02-28T00:39:58;28.53;;;15.47;;
2001;SDS011;1003;48.002;7.788;2024-02-28T00:42:25;26.87;;;15.70;;
2001;SDS011;1003;48.002;7.788;2024-02-28T00:44:53;29.77;;;15.70;;
2001;SDS011;1003;48.002;7.788;2024-02-28T00:47:20;28.23;;;16.17;;
2001;SDS011;1003;48.002;7.788;2024-02-28T00:49:49;30.37;;;16.33;;
2001;SDS011;1003;48.002;7.788;2024-02-28T00:52:17;27.37;;;15.40;;
2001;SDS011;1003;48.002;7.788;2024-02-28T00:54:46;27.07;;;15.23;;
2001;SDS011;1003;48.002;7.788;2024-02-28T00:57:14;29.90;;;15.30;;
2001;SDS011;1003;48.002;7.788;2024-02-28T00:59:41;30.10;;;15.97;;
2001;SDS011;1003;48.002;7.788;2024-02-28T01:02:09;28.53;;;14.87;;
2001;SDS011;1003;48.002;7.788;2024-02-28T01:04:36;27.63;;;15.00;;
2001;SDS011;1003;48.002;7.788;2024-02-28T01:07:07;30.37;;;16.40;;
2001;SDS011;1003;48.002;7.788;2024-02-28T01:09:34;28.80;;;15.40;;
2001;SDS011;1003;48.002;7.788;2024-02-28T01:12:02;25.47;;;14.40;;
2001;SDS011;1003;48.002;7.788;2024-02-28T01:14:29;28.93;;;15.47;;
2001;SDS011;1003;48.002;7.788;2024-02-28T01:16:56;29.30;;;15.83;;
2001;SDS011;1003;48.002;7.788;2024-02-28T01:19:24;28.13;;;14.77;;
2001;SDS011;1003;48.002;7.788;2024-02-28T01:21:51;28.97;;;14.97;;
2001;SDS011;1003;48.002;7.788;2024-02-28T01:24:20;27.57;;;15.17;;
2001;SDS011;1003;48.002;7.788;2024-02-28T01:26:47;32.53;;;16.50;;
2001;SDS011;1003;48.002;7.788;2024-02-28T01:29:14;28.17;;;15.83;;
2001;SDS011;1003;48.002;7.788;2024-02-28T01:34:13;34.93;;;16.37;;
2001;SDS011;1003;48.002;7.788;2024-02-28T01:36:40;27.70;;;14.77;;
2001;SDS011;1003;48.002;7.788;2024-02-28T01:39:07;28.27;;;15.20;;
2001;SDS011;1003;48.002;7.788;2024-02-28T01:41:36;34.17;;;17.33;;
2001;SDS011;1003;48.002;7.788;2024-02-28T01:44:03;30.27;;;15.93;;
2001;SDS011;1003;48.002;7.788;2024-02-28T01:46:31;30.40;;;15.37;;
2001;SDS011;1003;48.002;7.788;2024-02-28T01:48:58;32.53;;;16.73;;
2001;SDS011;1003;48.002;7.788;2024-02-28T01:51:26;34.37;;;16.47;;
2001;SDS011;1003;48.002;7.788;2024-02-28T01:53:54;30.47;;;15.20;;
2001;SDS011;1003;48.002;7.788;2024-02-28T01:56:23;31.43;;;15.57;;
2001;SDS011;1003;48.002;7.788;2024-02-28T01:58:52;26.80;;;15.07;;
2001;SDS011;1003;48.002;7.788;2024-02-28T02:01:21;32.07;;;16.30;;
2001;SDS011;1003;48.002;7.788;2024-02-28T02:03:48;33.73;;;16.17;;
2001;SDS011;1003;48.002;7.788;2024-02-28T02:06:15;33.53;;;16.07;;
2001;SDS011;1003;48.002;7.788;2024-02-28T02:08:43;31.00;;;16.17;;
2001;SDS011;1003;48.002;7.788;2024-02-28T02:11:11;30.00;;;15.97;;
2001;SDS011;1003;48.002;7.788;2024-02-28T02:13:48;32.10;;;16.10;;
2001;SDS011;1003;48.002;7.788;2024-02-28T02:16:17;28.80;;;15.77;;
2001;SDS011;1003;48.002;7.788;2024-02-28T02:18:47;29.27;;;15.20;;
2001;SDS011;1003;48.002;7.788;2024-02-28T02:21:15;32.73;;;16.10;;
2001;SDS011;1003;48.002;7.788;2024-02-28T02:23:47;29.47;;;15.90;;
2001;SDS011;1003;48.002;7.788;2024-02-28T02:26:14;27.60;;;14.40;;
2001;SDS011;1003;48.002;7.788;2024-02-28T02:28:41;25.83;;;14.00;;
2001;SDS011;1003;48.002;7.788;2024-02-28T02:31:08;28.63;;;15.87;;
2001;SDS011;1003;48.002;7.788;2024-02-28T02:33:36;33.37;;;15.93;;
2001;SDS011;1003;48.002;7.788;2024-02-28T02:36:03;27.80;;;15.33;;
2001;SDS011;1003;48.002;7.788;2024-02-28T02:38:30;29.87;;;15.67;;
2001;SDS011;1003;48.002;7.788;2024-02-28T02:40:59;32.57;;;16.63;;
2001;SDS011;1003;48.002;7.788;2024-02-28T02:43:26;33.10;;;16.60;;
2001;SDS011;1003;48.002;7.788;2024-02-28T02:45:53;28.17;;;16.33;;
2001;SDS011;1003;48.002;7.788;2024-02-28T02:48:19;27.73;;;15.63;;
2001;SDS011;1003;48.002;7.788;2024-02-28T02:50:46;28.80;;;15.37;;
2001;SDS011;1003;48.002;7.788;2024-02-28T02:53:13;29.33;;;15.17;;
2001;SDS011;1003;48.002;7.788;2024-02-28T02:55:40;29.13;;;15.33;;
2001;SDS011;1003;48.002;7.788;2024-02-28T02:58:08;28.80;;;15.00;;
2001;SDS011;1003;48.002;7.788;2024-02-28T03:00:35;29.90;;;15.23;;
2001;SDS011;1003;48.002;7.788;2024-02-28T03:03:02;28.93;;;15.80;;
2001;SDS011;1003;48.002;7.788;2024-02-28T03:05:30;30.80;;;15.93;;
2001;SDS011;1003;48.002;7.788;2024-02-28T03:07:57;29.53;;;15.60;;
2001;SDS011;1003;48.002;7.788;2024-02-28T03:10:24;28.80;;;14.80;;
2001;SDS011;1003;48.002;7.788;2024-02-28T03:12:51;31.83;;;15.73;;
2001;SDS011;1003;48.002;7.788;2024-02-28T03:15:20;27.87;;;14.87;;
2001;SDS011;1003;48.002;7.788;2024-02-28T03:17:47;30.67;;;16.03;;
2001;SDS011;1003;48.002;7.788;2024-02-28T03:20:14;31.00;;;15.83;;
2001;SDS011;1003;48.002;7.788;2024-02-28T03:22:41;31.60;;;16.33;;
2001;SDS011;1003;48.002;7.788;2024-02-28T03:25:08;31.07;;;15.67;;
2001;SDS011;1003;48.002;7.788;2024-02-28T03:27:36;33.33;;;16.43;;
2001;SDS011;1003;48.002;7.788;2024-02-28T03:30:03;31.13;;;15.70;;
2001;SDS011;1003;48.002;7.788;2024-02-28T03:32:32;31.33;;;16.43;;
2001;SDS011;1003;48.002;7.788;2024-02-28T03:34:59;30.67;;;15.83;;
2001;SDS011;1003;48.002;7.788;2024-02-28T03:37:26;30.30;;;15.30;;
2001;SDS011;1003;48.002;7.788;2024-02-28T03:39:53;28.83;;;15.27;;
2001;SDS011;1003;48.002;7.788;2024-02-28T03:42:20;30.80;;;15.10;;
2001;SDS011;1003;48.002;7.788;2024-02-28T03:44:47;27.67;;;14.33;;
2001;SDS011;1003;48.002;7.788;2024-02-28T03:47:14;30.40;;;15.27;;
2001;SDS011;1003;48.002;7.788;2024-02-28T03:49:42;30.77;;;15.43;;
2001;SDS011;1003;48.002;7.788;2024-02-28T03:52:09;28.00;;;15.27;;
2001;SDS011;1003;48.002;7.788;2024-02-28T03:54:36;29.73;;;15.27;;
2001;SDS011;1003;48.002;7.788;2024-02-28T03:57:03;29.17;;;15.60;;
2001;SDS011;1003;48.002;7.788;2024-02-28T03:59:30;29.33;;;15.03;;
2001;SDS011;1003;48.002;7.788;2024-02-28T04:01:57;26.80;;;14.53;;
2001;SDS011;1003;48.002;7.788;2024-02-28T04:04:24;28.73;;;15.87;;
2001;SDS011;1003;48.002;7.788;2024-02-28T04:06:52;30.47;;;16.03;;
2001;SDS011;1003;48.002;7.788;2024-02-28T04:09:19;25.27;;;14.37;;
2001;SDS011;1003;48.002;7.788;2024-02-28T04:11:46;29.80;;;15.90;;
2001;SDS011;1003;48.002;7.788;2024-02-28T04:14:13;28.90;;;15.20;;
2001;SDS011;1003;48.002;7.788;2024-02-28T04:16:41;31.70;;;15.60;;
2001;SDS011;1003;48.002;7.788;2024-02-28T04:19:09;30.33;;;15.60;;
2001;SDS011;1003;48.002;7.788;2024-02-28T04:21:37;31.37;;;16.13;;
2001;SDS011;1003;48.002;7.788;2024-02-28T04:24:05;31.00;;;15.80;;
2001;SDS011;1003;48.002;7.788;2024-02-28T04:26:33;28.43;;;15.60;;
2001;SDS011;1003;48.002;7.788;2024-02-28T04:29:01;31.50;;;16.07;;
2001;SDS011;1003;48.002;7.788;2024-02-28T04:31:30;31.47;;;15.80;;
2001;SDS011;1003;48.002;7.788;2024-02-28T04:33:57;29.80;;;15.17;;
2001;SDS011;1003;48.002;7.788;2024-02-28T04:36:26;28.67;;;14.40;;
2001;SDS011;1003;48.002;7.788;2024-02-28T04:38:53;31.90;;;15.77;;
2001;SDS011;1003;48.002;7.788;2024-02-28T04:41:21;30.67;;;15.07;;
2001;SDS011;1003;48.002;7.788;2024-02-28T04:43:48;28.77;;;15.20;;
2001;SDS011;1003;48.002;7.788;2024-02-28T04:46:15;32.00;;;15.73;;
2001;SDS011;1003;48.002;7.788;2024-02-28T04:48:42;29.63;;;14.97;;
2001;SDS011;1003;48.002;7.788;2024-02-28T04:51:09;31.10;;;15.20;;
2001;SDS011;1003;48.002;7.788;2024-02-28T04:53:36;27.83;;;15.40;;
2001;SDS011;1003;48.002;7.788;2024-02-28T04:56:05;31.87;;;16.33;;
2001;SDS011;1003;48.002;7.788;2024-02-28T04:58:33;30.23;;;15.60;;
2001;SDS011;1003;48.002;7.788;2024-02-28T05:01:01;30.30;;;15.43;;
2001;SDS011;1003;48.002;7.788;2024-02-28T05:03:29;28.27;;;15.00;;
2001;SDS011;1003;48.002;7.788;2024-02-28T05:05:56;29.20;;;15.67;;
2001;SDS011;1003;48.002;7.788;2024-02-28T05:08:22;29.47;;;14.90;;
2001;SDS011;1003;48.002;7.788;2024-02-28T05:10:54;34.10;;;15.63;;
2001;SDS011;1003;48.002;7.788;2024-02-28T05:13:21;30.00;;;14.87;;
2001;SDS011;1003;48.002;7.788;2024-02-28T05:15:50;29.10;;;14.57;;
2001;SDS011;1003;48.002;7.788;2024-02-28T05:18:18;30.60;;;16.23;;
2001;SDS011;1003;48.002;7.788;2024-02-28T05:20:44;29.53;;;15.97;;
2001;SDS011;1003;48.002;7.788;2024-02-28T05:23:11;28.83;;;15.33;;
2001;SDS011;1003;48.002;7.788;2024-02-28T05:25:38;27.70;;;15.43;;
2001;SDS011;1003;48.002;7.788;2024-02-28T05:28:06;29.43;;;15.53;;
2001;SDS011;1003;48.002;7.788;2024-02-28T05:30:33;28.87;;;15.27;;
2001;SDS011;1003;48.002;7.788;2024-02-28T05:33:01;30.57;;;15.27;;
2001;SDS011;1003;48.002;7.788;2024-02-28T05:35:29;30.20;;;15.77;;
2001;SDS011;1003;48.002;7.788;2024-02-28T05:37:56;26.97;;;14.40;;
2001;SDS011;1003;48.002;7.788;2024-02-28T05:42:59;35.10;;;16.83;;
2001;SDS011;1003;48.002;7.788;2024-02-28T05:45:27;29.23;;;15.77;;
2001;SDS011;1003;48.002;7.788;2024-02-28T05:47:54;34.43;;;16.60;;
2001;SDS011;1003;48.002;7.788;2024-02-28T05:50:23;33.17;;;16.97;;
2001;SDS011;1003;48.002;7.788;2024-02-28T05:52:50;33.00;;;16.43;;
2001;SDS011;1003;48.002;7.788;2024-02-28T05:55:17;37.67;;;17.53;;
2001;SDS011;1003;48.002;7.788;2024-02-28T05:57:46;32.00;;;16.77;;
2001;SDS011;1003;48.002;7.788;2024-02-28T06:00:13;35.33;;;16.97;;
2001;SDS011;1003;48.002;7.788;2024-02-28T06:02:41;37.63;;;18.73;;
2001;SDS011;1003;48.002;7.788;2024-02-28T06:05:08;36.03;;;17.63;;
2001;SDS011;1003;48.002;7.788;2024-02-28T06:07:37;37.97;;;18.57;;
2001;SDS011;1003;48.002;7.788;2024-02-28T06:10:04;32.80;;;16.53;;
2001;SDS011;1003;48.002;7.788;2024-02-28T06:12:31;35.60;;;17.10;;
2001;SDS011;1003;48.002;7.788;2024-02-28T06:14:58;38.03;;;17.63;;
2001;SDS011;1003;48.002;7.788;2024-02-28T06:17:25;37.60;;;18.10;;
2001;SDS011;1003;48.002;7.788;2024-02-28T06:19:52;36.27;;;17.47;;
2001;SDS011;1003;48.002;7.788;2024-02-28T06:22:19;36.83;;;18.47;;
2001;SDS011;1003;48.002;7.788;2024-02-28T06:24:47;37.27;;;18.03;;
2001;SDS011;1003;48.002;7.788;2024-02-28T06:27:14;41.47;;;20.13;;
2001;SDS011;1003;48.002;7.788;2024-02-28T06:29:41;39.17;;;18.67;;
2001;SDS011;1003;48.002;7.788;2024-02-28T06:32:08;35.20;;;16.80;;
2001;SDS011;1003;48.002;7.788;2024-02-28T06:34:35;37.03;;;17.77;;
2001;SDS011;1003;48.002;7.788;2024-02-28T06:37:02;35.73;;;17.93;;
2001;SDS011;1003;48.002;7.788;2024-02-28T06:39:29;33.27;;;17.00;;
2001;SDS011;1003;48.002;7.788;2024-02-28T06:41:58;36.53;;;18.33;;
2001;SDS011;1003;48.002;7.788;2024-02-28T06:44:25;35.80;;;17.90;;
2001;SDS011;1003;48.002;7.788;2024-02-28T06:46:52;40.07;;;19.40;;
2001;SDS011;1003;48.002;7.788;2024-02-28T06:49:19;41.50;;;19.33;;
2001;SDS011;1003;48.002;7.788;2024-02-28T06:51:46;37.23;;;17.73;;
2001;SDS011;1003;48.002;7.788;2024-02-28T06:54:12;42.70;;;20.03;;
2001;SDS011;1003;48.002;7.788;2024-02-28T06:56:39;42.80;;;20.40;;
2001;SDS011;1003;48.002;7.788;2024-02-28T06:59:08;35.87;;;18.17;;
2001;SDS011;1003;48.002;7.788;2024-02-28T07:01:34;37.47;;;18.63;;
2001;SDS011;1003;48.002;7.788;2024-02-28T07:04:02;35.30;;;17.03;;
2001;SDS011;1003;48.002;7.788;2024-02-28T07:06:29;39.37;;;19.03;;
2001;SDS011;1003;48.002;7.788;2024-02-28T07:08:56;41.53;;;19.93;;
2001;SDS011;1003;48.002;7.788;2024-02-28T07:11:23;39.40;;;19.23;;
2001;SDS011;1003;48.002;7.788;2024-02-28T07:13:50;42.03;;;20.30;;
2001;SDS011;1003;48.002;7.788;2024-02-28T07:16:18;45.53;;;21.40;;
2001;SDS011;1003;48.002;7.788;2024-02-28T07:18:45;44.00;;;19.47;;
2001;SDS011;1003;48.002;7.788;2024-02-28T07:21:12;42.37;;;20.00;;
2001;SDS011;1003;48.002;7.788;2024-02-28T07:23:39;40.97;;;19.53;;
2001;SDS011;1003;48.002;7.788;2024-02-28T07:26:06;44.90;;;20.50;;
2001;SDS011;1003;48.002;7.788;2024-02-28T07:28:33;39.17;;;19.23;;
2001;SDS011;1003;48.002;7.788;2024-02-28T07:31:00;43.90;;;19.80;;
2001;SDS011;1003;48.002;7.788;2024-02-28T07:33:28;39.50;;;19.00;;
2001;SDS011;1003;48.002;7.788;2024-02-28T07:35:55;41.40;;;19.97;;
2001;SDS011;1003;48.002;7.788;2024-02-28T07:38:25;39.60;;;19.93;;
2001;SDS011;1003;48.002;7.788;2024-02-28T07:40:53;34.47;;;17.93;;
2001;SDS011;1003;48.002;7.788;2024-02-28T07:43:20;42.97;;;19.97;;
2001;SDS011;1003;48.002;7.788;2024-02-28T07:45:46;40.73;;;18.83;;
2001;SDS011;1003;48.002;7.788;2024-02-28T07:48:13;39.87;;;18.67;;
2001;SDS011;1003;48.002;7.788;2024-02-28T07:50:43;42.40;;;18.87;;
2001;SDS011;1003;48.002;7.788;2024-02-28T07:53:10;39.13;;;18.73;;
2001;SDS011;1003;48.002;7.788;2024-02-28T07:55:38;39.20;;;18.23;;
2001;SDS011;1003;48.002;7.788;2024-02-28T07:58:05;35.07;;;17.43;;
2001;SDS011;1003;48.002;7.788;2024-02-28T08:00:32;45.57;;;22.10;;
2001;SDS011;1003;48.002;7.788;2024-02-28T08:02:59;34.97;;;17.93;;
2001;SDS011;1003;48.002;7.788;2024-02-28T08:05:26;39.20;;;17.30;;
2001;SDS011;1003;48.002;7.788;2024-02-28T08:07:55;37.03;;;17.60;;
2001;SDS011;1003;48.002;7.788;2024-02-28T08:10:21;37.10;;;17.83;;
2001;SDS011;1003;48.002;7.788;2024-02-28T08:12:48;37.77;;;18.20;;
2001;SDS011;1003;48.002;7.788;2024-02-28T08:15:15;35.53;;;18.27;;
2001;SDS011;1003;48.002;7.788;2024-02-28T08:17:42;40.53;;;18.90;;
2001;SDS011;1003;48.002;7.788;2024-02-28T08:20:09;37.77;;;18.20;;
2001;SDS011;1003;48.002;7.788;2024-02-28T08:22:37;39.47;;;18.50;;
2001;SDS011;1003;48.002;7.788;2024-02-28T08:25:06;38.27;;;17.90;;
2001;SDS011;1003;48.002;7.788;2024-02-28T08:27:36;40.60;;;18.30;;
2001;SDS011;1003;48.002;7.788;2024-02-28T08:30:04;35.63;;;17.67;;
2001;SDS011;1003;48.002;7.788;2024-02-28T08:32:33;40.50;;;18.63;;
2001;SDS011;1003;48.002;7.788;2024-02-28T08:35:00;40.53;;;19.10;;
2001;SDS011;1003;48.002;7.788;2024-02-28T08:37:27;43.17;;;20.27;;
2001;SDS011;1003;48.002;7.788;2024-02-28T08:39:54;39.47;;;18.13;;
2001;SDS011;1003;48.002;7.788;2024-02-28T08:42:24;37.43;;;18.23;;
2001;SDS011;1003;48.002;7.788;2024-02-28T08:44:51;38.73;;;18.30;;
2001;SDS011;1003;48.002;7.788;2024-02-28T08:47:22;36.17;;;17.47;;
2001;SDS011;1003;48.002;7.788;2024-02-28T08:49:49;34.70;;;16.90;;
2001;SDS011;1003;48.002;7.788;2024-02-28T08:52:16;38.00;;;17.87;;
2001;SDS011;1003;48.002;7.788;2024-02-28T08:54:43;39.37;;;19.27;;
2001;SDS011;1003;48.002;7.788;2024-02-28T08:57:10;37.23;;;17.77;;
2001;SDS011;1003;48.002;7.788;2024-02-28T08:59:39;38.23;;;18.37;;
2001;SDS011;1003;48.002;7.788;2024-02-28T09:02:06;36.60;;;18.63;;
2001;SDS011;1003;48.002;7.788;2024-02-28T09:04:33;36.17;;;17.90;;
2001;SDS011;1003;48.002;7.788;2024-02-28T09:07:00;35.87;;;18.33;;
2001;SDS011;1003;48.002;7.788;2024-02-28T09:09:27;37.37;;;18.30;;
2001;SDS011;1003;48.002;7.788;2024-02-28T09:11:57;34.47;;;17.27;;
2001;SDS011;1003;48.002;7.788;2024-02-28T09:14:24;33.83;;;17.67;;
2001;SDS011;1003;48.002;7.788;2024-02-28T09:16:52;34.23;;;17.57;;
2001;SDS011;1003;48.002;7.788;2024-02-28T09:19:21;32.63;;;16.50;;
2001;SDS011;1003;48.002;7.788;2024-02-28T09:21:48;36.37;;;17.70;;
2001;SDS011;1003;48.002;7.788;2024-02-28T09:24:15;30.97;;;16.20;;
2001;SDS011;1003;48.002;7.788;2024-02-28T09:26:42;35.37;;;17.73;;
2001;SDS011;1003;48.002;7.788;2024-02-28T09:29:08;30.40;;;16.43;;
2001;SDS011;1003;48.002;7.788;2024-02-28T09:31:35;33.20;;;17.13;;
2001;SDS011;1003;48.002;7.788;2024-02-28T09:34:04;35.43;;;17.63;;
2001;SDS011;1003;48.002;7.788;2024-02-28T09:36:41;32.30;;;17.67;;
2001;SDS011;1003;48.002;7.788;2024-02-28T09:39:12;34.03;;;17.73;;
2001;SDS011;1003;48.002;7.788;2024-02-28T09:41:42;35.67;;;17.13;;
2001;SDS011;1003;48.002;7.788;2024-02-28T09:44:08;32.77;;;17.20;;
2001;SDS011;1003;48.002;7.788;2024-02-28T09:46:37;32.40;;;17.17;;
2001;SDS011;1003;48.002;7.788;2024-02-28T09:49:08;78.13;;;22.13;;
2001;SDS011;1003;48.002;7.788;2024-02-28T09:51:36;82.70;;;21.93;;
2001;SDS011;1003;48.002;7.788;2024-02-28T09:54:03;40.07;;;18.77;;
2001;SDS011;1003;48.002;7.788;2024-02-28T09:56:31;32.97;;;17.33;;
2001;SDS011;1003;48.002;7.788;2024-02-28T09:58:59;33.33;;;17.97;;
2001;SDS011;1003;48.002;7.788;2024-02-28T10:01:28;34.57;;;18.13;;
2001;SDS011;1003;48.002;7.788;2024-02-28T10:03:55;35.30;;;17.07;;
2001;SDS011;1003;48.002;7.788;2024-02-28T10:06:26;35.67;;;17.90;;
2001;SDS011;1003;48.002;7.788;2024-02-28T10:08:53;33.80;;;18.23;;
2001;SDS011;1003;48.002;7.788;2024-02-28T10:11:20;35.17;;;17.77;;
2001;SDS011;1003;48.002;7.788;2024-02-28T10:13:50;32.77;;;17.97;;
2001;SDS011;1003;48.002;7.788;2024-02-28T10:16:20;41.37;;;19.37;;
2001;SDS011;1003;48.002;7.788;2024-02-28T10:18:47;44.33;;;19.07;;
2001;SDS011;1003;48.002;7.788;2024-02-28T10:21:14;271.23;;;35.80;;
2001;SDS011;1003;48.002;7.788;2024-02-28T10:23:42;38.53;;;18.70;;
2001;SDS011;1003;48.002;7.788;2024-02-28T10:26:11;33.17;;;17.47;;
2001;SDS011;1003;48.002;7.788;2024-02-28T10:28:40;35.17;;;18.33;;
2001;SDS011;1003;48.002;7.788;2024-02-28T10:31:08;32.60;;;16.77;;
2001;SDS011;1003;48.002;7.788;2024-02-28T10:33:37;35.87;;;18.27;;
2001;SDS011;1003;48.002;7.788;2024-02-28T10:36:05;37.03;;;18.47;;
2001;SDS011;1003;48.002;7.788;2024-02-28T11:56:01;24.03;;;12.60;;
2001;SDS011;1003;48.002;7.788;2024-02-28T11:58:28;22.87;;;12.47;;
2001;SDS011;1003;48.002;7.788;2024-02-28T12:00:55;23.90;;;13.37;;
2001;SDS011;1003;48.002;7.788;2024-02-28T12:03:22;23.27;;;12.77;;
2001;SDS011;1003;48.002;7.788;2024-02-28T12:05:55;31.97;;;14.67;;
2001;SDS011;1003;48.002;7.788;2024-02-28T12:08:22;26.57;;;13.50;;
2001;SDS011;1003;48.002;7.788;2024-02-28T12:10:50;24.77;;;13.47;;
2001;SDS011;1003;48.002;7.788;2024-02-28T12:13:17;21.53;;;12.60;;
2001;SDS011;1003;48.002;7.788;2024-02-28T12:15:45;25.07;;;13.70;;
2001;SDS011;1003;48.002;7.788;2024-02-28T12:18:14;26.53;;;13.57;;
2001;SDS011;1003;48.002;7.788;2024-02-28T12:20:41;22.87;;;12.73;;
2001;SDS011;1003;48.002;7.788;2024-02-28T12:23:10;24.87;;;13.27;;
2001;SDS011;1003;48.002;7.788;2024-02-28T12:25:37;24.60;;;13.77;;
2001;SDS011;1003;48.002;7.788;2024-02-28T12:28:06;25.53;;;13.43;;
2001;SDS011;1003;48.002;7.788;2024-02-28T12:30:38;23.60;;;12.90;;
2001;SDS011;1003;48.002;7.788;2024-02-28T12:33:07;25.40;;;13.10;;
2001;SDS011;1003;48.002;7.788;2024-02-28T12:35:34;22.47;;;12.13;;
2001;SDS011;1003;48.002;7.788;2024-02-28T12:38:01;21.80;;;12.10;;
2001;SDS011;1003;48.002;7.788;2024-02-28T12:40:29;22.20;;;12.00;;
2001;SDS011;1003;48.002;7.788;2024-02-28T12:42:56;24.17;;;12.13;;
2001;SDS011;1003;48.002;7.788;2024-02-28T12:45:24;19.73;;;11.57;;
2001;SDS011;1003;48.002;7.788;2024-02-28T12:47:51;23.30;;;12.70;;
2001;SDS011;1003;48.002;7.788;2024-02-28T12:50:21;21.20;;;11.60;;
2001;SDS011;1003;48.002;7.788;2024-02-28T12:52:49;23.13;;;12.50;;
2001;SDS011;1003;48.002;7.788;2024-02-28T12:55:18;21.90;;;11.97;;
2001;SDS011;1003;48.002;7.788;2024-02-28T12:57:46;21.47;;;12.20;;
2001;SDS011;1003;48.002;7.788;2024-02-28T13:00:13;20.93;;;11.47;;
2001;SDS011;1003;48.002;7.788;2024-02-28T13:02:42;20.40;;;12.10;;
2001;SDS011;1003;48.002;7.788;2024-02-28T13:05:11;22.50;;;11.87;;
2001;SDS011;1003;48.002;7.788;2024-02-28T13:07:39;17.77;;;10.83;;
2001;SDS011;1003;48.002;7.788;2024-02-28T13:10:06;20.20;;;11.13;;
2001;SDS011;1003;48.002;7.788;2024-02-28T13:12:35;19.33;;;11.07;;
2001;SDS011;1003;48.002;7.788;2024-02-28T13:15:03;19.50;;;11.10;;
2001;SDS011;1003;48.002;7.788;2024-02-28T13:17:32;23.27;;;13.43;;
2001;SDS011;1003;48.002;7.788;2024-02-28T13:20:01;21.80;;;11.83;;
2001;SDS011;1003;48.002;7.788;2024-02-28T13:22:29;21.73;;;11.53;;
2001;SDS011;1003;48.002;7.788;2024-02-28T13:24:56;19.43;;;11.20;;
2001;SDS011;1003;48.002;7.788;2024-02-28T13:27:22;17.87;;;10.23;;
2001;SDS011;1003;48.002;7.788;2024-02-28T13:29:49;21.47;;;12.40;;
2001;SDS011;1003;48.002;7.788;2024-02-28T13:32:16;20.50;;;11.47;;
2001;SDS011;1003;48.002;7.788;2024-02-28T13:34:43;21.60;;;11.93;;
2001;SDS011;1003;48.002;7.788;2024-02-28T13:37:12;22.67;;;12.70;;
2001;SDS011;1003;48.002;7.788;2024-02-28T13:39:38;23.00;;;11.87;;
2001;SDS011;1003;48.002;7.788;2024-02-28T13:42:06;23.80;;;12.47;;
2001;SDS011;1003;48.002;7.788;2024-02-28T13:44:34;22.47;;;12.67;;
2001;SDS011;1003;48.002;7.788;2024-02-28T13:47:03;21.43;;;12.50;;
2001;SDS011;1003;48.002;7.788;2024-02-28T13:49:30;21.47;;;12.07;;
2001;SDS011;1003;48.002;7.788;2024-02-28T13:51:57;21.43;;;11.50;;
2001;SDS011;1003;48.002;7.788;2024-02-28T13:54:26;20.40;;;11.60;;
2001;SDS011;1003;48.002;7.788;2024-02-28T13:56:53;23.03;;;12.00;;
2001;SDS011;1003;48.002;7.788;2024-02-28T13:59:20;19.83;;;11.50;;
2001;SDS011;1003;48.002;7.788;2024-02-28T14:15:50;22.27;;;11.53;;
2001;SDS011;1003;48.002;7.788;2024-02-28T14:18:18;20.60;;;11.33;;
2001;SDS011;1003;48.002;7.788;2024-02-28T14:20:45;20.60;;;10.97;;
2001;SDS011;1003;48.002;7.788;2024-02-28T14:23:12;18.50;;;10.63;;
2001;SDS011;1003;48.002;7.788;2024-02-28T14:25:40;18.80;;;10.80;;
2001;SDS011;1003;48.002;7.788;2024-02-28T14:28:07;20.57;;;11.60;;
2001;SDS011;1003;48.002;7.788;2024-02-28T14:30:34;19.83;;;11.13;;
2001;SDS011;1003;48.002;7.788;2024-02-28T14:33:02;21.17;;;11.23;;
2001;SDS011;1003;48.002;7.788;2024-02-28T14:35:30;17.57;;;10.60;;
2001;SDS011;1003;48.002;7.788;2024-02-28T14:37:57;20.00;;;11.23;;
2001;SDS011;1003;48.002;7.788;2024-02-28T14:40:24;17.87;;;10.63;;
2001;SDS011;1003;48.002;7.788;2024-02-28T14:42:51;19.73;;;11.17;;
2001;SDS011;1003;48.002;7.788;2024-02-28T14:45:18;19.13;;;10.87;;
2001;SDS011;1003;48.002;7.788;2024-02-28T14:47:45;17.43;;;10.10;;
2001;SDS011;1003;48.002;7.788;2024-02-28T14:50:13;16.83;;;10.23;;
2001;SDS011;1003;48.002;7.788;2024-02-28T14:52:40;17.73;;;10.90;;
2001;SDS011;1003;48.002;7.788;2024-02-28T14:55:09;18.17;;;10.37;;
2001;SDS011;1003;48.002;7.788;2024-02-28T14:57:37;21.97;;;10.93;;
2001;SDS011;1003;48.002;7.788;2024-02-28T15:00:06;17.10;;;10.30;;
2001;SDS011;1003;48.002;7.788;2024-02-28T15:02:38;16.07;;;9.70;;
2001;SDS011;1003;48.002;7.788;2024-02-28T15:05:06;18.37;;;10.57;;
2001;SDS011;1003;48.002;7.788;2024-02-28T15:07:35;19.03;;;10.40;;
2001;SDS011;1003;48.002;7.788;2024-02-28T15:10:04;16.73;;;9.63;;
2001;SDS011;1003;48.002;7.788;2024-02-28T15:12:33;18.30;;;10.40;;
2001;SDS011;1003;48.002;7.788;2024-02-28T15:15:02;16.53;;;9.83;;
2001;SDS011;1003;48.002;7.788;2024-02-28T15:17:31;18.03;;;10.03;;
2001;SDS011;1003;48.002;7.788;2024-02-28T15:19:58;18.17;;;10.43;;
2001;SDS011;1003;48.002;7.788;2024-02-28T15:22:27;16.00;;;9.40;;
2001;SDS011;1003;48.002;7.788;2024-02-28T15:24:56;18.33;;;9.90;;
2001;SDS011;1003;48.002;7.788;2024-02-28T15:27:23;17.53;;;9.90;;
2001;SDS011;1003;48.002;7.788;2024-02-28T15:29:49;17.27;;;10.60;;
2001;SDS011;1003;48.002;7.788;2024-02-28T15:32:18;18.33;;;9.77;;
2001;SDS011;1003;48.002;7.788;2024-02-28T15:34:45;17.07;;;9.50;;
2001;SDS011;1003;48.002;7.788;2024-02-28T15:37:12;21.97;;;11.50;;
2001;SDS011;1003;48.002;7.788;2024-02-28T15:39:39;20.47;;;11.00;;
2001;SDS011;1003;48.002;7.788;2024-02-28T15:42:08;19.13;;;10.67;;
2001;SDS011;1003;48.002;7.788;2024-02-28T15:44:37;17.50;;;10.13;;
2001;SDS011;1003;48.002;7.788;2024-02-28T15:47:05;20.50;;;9.80;;
2001;SDS011;1003;48.002;7.788;2024-02-28T15:49:34;16.97;;;9.23;;
2001;SDS011;1003;48.002;7.788;2024-02-28T15:52:01;17.63;;;10.07;;
2001;SDS011;1003;48.002;7.788;2024-02-28T15:54:30;16.00;;;9.63;;
2001;SDS011;1003;48.002;7.788;2024-02-28T15:56:57;19.13;;;10.70;;
2001;SDS011;1003;48.002;7.788;2024-02-28T15:59:26;17.50;;;10.00;;
2001;SDS011;1003;48.002;7.788;2024-02-28T16:01:53;18.47;;;9.83;;
2001;SDS011;1003;48.002;7.788;2024-02-28T16:14:46;13.30;;;8.50;;
2001;SDS011;1003;48.002;7.788;2024-02-28T16:28:16;18.70;;;10.37;;
2001;SDS011;1003;48.002;7.788;2024-02-28T16:34:26;16.23;;;9.17;;
2001;SDS011;1003;48.002;7.788;2024-02-28T16:36:54;18.47;;;10.30;;
2001;SDS011;1003;48.002;7.788;2024-02-28T16:39:22;18.03;;;9.63;;
2001;SDS011;1003;48.002;7.788;2024-02-28T16:41:49;16.13;;;9.57;;
2001;SDS011;1003;48.002;7.788;2024-02-28T16:44:16;16.23;;;9.43;;
2001;SDS011;1003;48.002;7.788;2024-02-28T16:46:43;15.57;;;9.13;;
2001;SDS011;1003;48.002;7.788;2024-02-28T16:49:10;16.23;;;9.20;;
2001;SDS011;1003;48.002;7.788;2024-02-28T16:51:38;19.87;;;9.77;;
2001;SDS011;1003;48.002;7.788;2024-02-28T16:54:05;18.00;;;9.37;;